createdAt,value
2023-05-05T00:02:28.384Z,47.55
2023-05-05T00:04:58.768Z,47.60
2023-05-05T00:07:29.023Z,47.75
2023-05-05T00:09:59.177Z,47.79
2023-05-05T00:12:29.410Z,47.84
2023-05-05T00:14:59.847Z,47.94
2023-05-05T00:17:30.051Z,47.93
2023-05-05T00:20:00.925Z,47.89
2023-05-05T00:22:31.250Z,47.75
2023-05-05T00:25:01.479Z,47.91
2023-05-05T00:27:31.650Z,47.86
2023-05-05T00:30:01.853Z,47.90
2023-05-05T00:32:32.103Z,48.03
2023-05-05T00:35:02.342Z,47.94
2023-05-05T00:37:32.537Z,48.08
2023-05-05T00:40:03.908Z,48.26
2023-05-05T00:42:42.483Z,48.34
2023-05-05T00:45:14.983Z,48.40
2023-05-05T00:47:46.257Z,48.58
2023-05-05T00:50:23.531Z,48.43
2023-05-05T00:52:56.444Z,48.41
2023-05-05T00:55:26.102Z,48.52
2023-05-05T00:57:56.618Z,48.43
2023-05-05T01:00:27.110Z,48.55
2023-05-05T01:02:58.771Z,48.57
2023-05-05T01:05:31.892Z,48.53
2023-05-05T01:08:11.679Z,48.58
2023-05-05T01:10:44.168Z,48.66
2023-05-05T01:13:25.428Z,48.81
2023-05-05T01:16:02.463Z,48.77
2023-05-05T01:18:36.642Z,48.48
2023-05-05T01:21:10.963Z,48.67
2023-05-05T01:23:54.631Z,48.88
2023-05-05T01:26:42.661Z,49.03
2023-05-05T01:29:33.441Z,49.02
2023-05-05T01:32:06.496Z,49.08
2023-05-05T01:34:43.219Z,49.23
2023-05-05T01:37:15.490Z,49.03
2023-05-05T01:39:46.053Z,49.06
2023-05-05T01:42:18.625Z,49.54
2023-05-05T01:44:50.132Z,49.33
2023-05-05T01:47:22.668Z,49.40
2023-05-05T01:49:53.469Z,49.78
2023-05-05T01:52:24.909Z,49.67
2023-05-05T01:54:55.898Z,49.92
2023-05-05T01:57:27.148Z,50.00
2023-05-05T01:59:57.833Z,49.95
2023-05-05T02:02:28.381Z,50.35
2023-05-05T02:04:59.081Z,50.39
2023-05-05T02:07:29.777Z,50.47
2023-05-05T02:10:00.569Z,50.77
2023-05-05T02:12:31.608Z,50.91
2023-05-05T02:15:03.988Z,51.35
2023-05-05T02:17:34.369Z,51.67
2023-05-05T02:20:06.184Z,51.76
2023-05-05T02:22:36.539Z,52.17
2023-05-05T02:25:08.601Z,52.22
2023-05-05T02:27:40.105Z,52.66
2023-05-05T02:30:12.504Z,52.54
2023-05-05T02:32:49.042Z,52.44
2023-05-05T02:35:22.073Z,52.84
2023-05-05T02:37:59.578Z,53.12
2023-05-05T02:40:32.975Z,53.45
2023-05-05T02:43:10.062Z,53.46
2023-05-05T02:45:40.475Z,53.77
2023-05-05T02:48:12.866Z,53.72
2023-05-05T02:50:43.205Z,53.86
2023-05-05T02:53:30.364Z,53.90
2023-05-05T02:56:09.361Z,53.70
2023-05-05T02:58:50.105Z,53.63
2023-05-05T03:01:29.146Z,53.90
2023-05-05T03:04:07.428Z,53.85
2023-05-05T03:06:43.728Z,53.81
2023-05-05T03:09:21.472Z,53.80
2023-05-05T03:11:55.956Z,53.92
2023-05-05T03:14:27.270Z,53.94
2023-05-05T03:16:58.293Z,53.94
2023-05-05T03:19:28.821Z,53.85
2023-05-05T03:22:02.015Z,54.33
2023-05-05T03:24:32.473Z,54.37
2023-05-05T03:27:06.990Z,54.44
2023-05-05T03:29:40.262Z,54.50
2023-05-05T03:32:14.035Z,54.66
2023-05-05T03:34:44.513Z,54.73
2023-05-05T03:37:14.807Z,54.68
2023-05-05T03:39:45.370Z,54.65
2023-05-05T03:42:15.902Z,54.69
2023-05-05T03:44:46.136Z,54.76
2023-05-05T03:47:17.203Z,54.71
2023-05-05T03:49:48.367Z,54.72
2023-05-05T03:52:18.827Z,54.67
2023-05-05T03:54:49.121Z,54.95
2023-05-05T03:57:19.298Z,54.86
2023-05-05T03:59:49.719Z,55.20
2023-05-05T04:02:20.142Z,55.45
2023-05-05T04:04:50.669Z,55.62
2023-05-05T04:07:22.751Z,55.50
2023-05-05T04:09:53.478Z,55.70
2023-05-05T04:12:23.836Z,55.68
2023-05-05T04:14:54.433Z,55.78
2023-05-05T04:17:25.268Z,55.69
2023-05-05T04:19:55.660Z,55.77
2023-05-05T04:22:26.183Z,55.94
2023-05-05T04:24:57.326Z,56.12
2023-05-05T04:27:30.451Z,56.17
2023-05-05T04:30:01.429Z,56.05
2023-05-05T04:32:33.565Z,56.04
2023-05-05T04:35:04.989Z,55.74
2023-05-05T04:37:35.820Z,55.49
2023-05-05T04:40:09.235Z,55.33
2023-05-05T04:42:39.796Z,54.76
2023-05-05T04:45:11.847Z,54.14
2023-05-05T04:47:42.237Z,53.74
2023-05-05T04:50:13.798Z,53.13
2023-05-05T04:52:44.025Z,52.62
2023-05-05T04:55:14.784Z,52.58
2023-05-05T04:57:45.045Z,52.35
2023-05-05T05:00:17.037Z,51.97
2023-05-05T05:02:47.418Z,51.56
2023-05-05T05:05:17.962Z,51.47
2023-05-05T05:07:48.470Z,51.69
2023-05-05T05:10:19.066Z,50.89
2023-05-05T05:12:51.153Z,50.29
2023-05-05T05:15:21.402Z,49.87
2023-05-05T05:17:51.896Z,49.46
2023-05-05T05:20:22.508Z,49.44
2023-05-05T05:22:53.259Z,49.31
2023-05-05T05:25:24.155Z,49.08
2023-05-05T05:28:08.392Z,48.08
2023-05-05T05:30:42.699Z,47.40
2023-05-05T05:33:13.392Z,45.99
2023-05-05T05:35:44.178Z,44.97
2023-05-05T05:38:15.142Z,44.30
2023-05-05T05:40:45.736Z,43.92
2023-05-05T05:43:16.561Z,43.36
2023-05-05T05:45:46.940Z,43.04
2023-05-05T05:48:17.572Z,43.23
2023-05-05T05:50:47.985Z,43.65
2023-05-05T05:53:18.205Z,43.55
2023-05-05T05:55:49.560Z,43.44
2023-05-05T05:58:19.865Z,43.56
2023-05-05T06:00:51.543Z,43.80
2023-05-05T06:03:22.061Z,44.21
2023-05-05T06:05:52.328Z,44.38
2023-05-05T06:08:24.799Z,44.42
2023-05-05T06:10:56.141Z,44.40
2023-05-05T06:13:27.119Z,44.33
2023-05-05T06:15:58.269Z,43.63
2023-05-05T06:18:28.688Z,43.16
2023-05-05T06:21:00.274Z,43.01
2023-05-05T06:23:31.296Z,42.52
2023-05-05T06:26:05.849Z,42.69
2023-05-05T06:28:36.041Z,42.68
2023-05-05T06:31:06.330Z,42.14
2023-05-05T06:33:36.791Z,41.81
2023-05-05T06:36:09.441Z,42.00
2023-05-05T06:38:39.755Z,41.94
2023-05-05T06:41:10.037Z,42.40
2023-05-05T06:43:42.906Z,42.61
2023-05-05T06:46:15.236Z,42.36
2023-05-05T06:48:46.122Z,42.60
2023-05-05T06:51:19.107Z,41.97
2023-05-05T06:53:49.539Z,41.92
2023-05-05T06:56:19.836Z,41.51
2023-05-05T06:58:50.479Z,41.93
2023-05-05T07:01:21.527Z,41.73
2023-05-05T07:03:52.331Z,41.59
2023-05-05T07:06:22.784Z,41.05
2023-05-05T07:08:53.511Z,41.13
2023-05-05T07:11:23.753Z,40.55
2023-05-05T07:13:54.311Z,40.37
2023-05-05T07:16:24.757Z,39.92
2023-05-05T07:18:55.180Z,40.15
2023-05-05T07:21:26.979Z,40.07
2023-05-05T07:23:58.216Z,39.88
2023-05-05T07:26:32.529Z,39.34
2023-05-05T07:29:07.489Z,39.29
2023-05-05T07:31:37.936Z,39.74
2023-05-05T07:34:08.408Z,39.62
2023-05-05T07:36:38.706Z,39.73
2023-05-05T07:39:09.143Z,39.49
2023-05-05T07:41:39.665Z,39.26
2023-05-05T07:44:09.929Z,39.78
2023-05-05T07:46:40.483Z,39.22
2023-05-05T07:49:10.874Z,39.08
2023-05-05T07:51:41.107Z,39.09
2023-05-05T07:54:13.021Z,39.40
2023-05-05T07:56:43.356Z,39.36
2023-05-05T07:59:13.969Z,39.60
2023-05-05T08:01:44.313Z,39.63
2023-05-05T08:04:14.681Z,39.96
2023-05-05T08:06:45.669Z,40.05
2023-05-05T08:09:16.780Z,39.91
2023-05-05T08:11:46.914Z,39.96
2023-05-05T08:14:17.490Z,40.19
2023-05-05T08:16:47.965Z,40.00
2023-05-05T08:19:28.842Z,40.23
2023-05-05T08:22:01.561Z,39.80
2023-05-05T08:24:32.192Z,39.37
2023-05-05T08:27:02.626Z,39.20
2023-05-05T08:29:33.219Z,39.06
2023-05-05T08:32:03.444Z,39.05
2023-05-05T08:34:33.776Z,39.43
2023-05-05T08:37:03.953Z,39.73
2023-05-05T08:39:34.141Z,39.91
2023-05-05T08:42:05.392Z,39.88
2023-05-05T08:44:36.174Z,40.15
2023-05-05T08:47:07.147Z,40.36
2023-05-05T08:49:46.354Z,39.84
2023-05-05T08:52:19.206Z,39.82
2023-05-05T08:54:54.830Z,39.46
2023-05-05T08:57:29.136Z,39.47
2023-05-05T08:59:59.722Z,38.76
2023-05-05T09:02:31.230Z,39.18
2023-05-05T09:05:05.050Z,39.00
2023-05-05T09:07:36.356Z,39.29
2023-05-05T09:10:08.440Z,38.93
2023-05-05T09:12:41.355Z,38.87
2023-05-05T09:15:13.660Z,38.99
2023-05-05T09:17:44.525Z,38.32
2023-05-05T09:20:16.160Z,38.01
2023-05-05T09:22:49.093Z,37.98
2023-05-05T09:25:19.916Z,37.57
2023-05-05T09:27:51.002Z,37.45
2023-05-05T09:30:27.257Z,38.18
2023-05-05T09:32:57.591Z,38.68
2023-05-05T09:35:27.816Z,37.80
2023-05-05T09:37:58.028Z,37.29
2023-05-05T09:40:28.286Z,37.28
2023-05-05T09:43:04.399Z,36.93
2023-05-05T09:45:35.035Z,36.92
2023-05-05T09:48:06.240Z,37.08
2023-05-05T09:50:45.476Z,36.40
2023-05-05T09:53:16.086Z,36.43
2023-05-05T09:55:55.053Z,36.07
2023-05-05T09:58:26.434Z,35.95
2023-05-05T10:00:57.551Z,35.24
2023-05-05T10:03:27.966Z,34.53
2023-05-05T10:06:00.953Z,33.77
2023-05-05T10:08:34.174Z,33.93
2023-05-05T10:11:06.958Z,33.53
2023-05-05T10:13:41.795Z,33.09
2023-05-05T10:16:14.510Z,32.67
2023-05-05T10:18:46.280Z,32.69
2023-05-05T10:21:22.106Z,32.00
2023-05-05T10:24:02.108Z,31.66
2023-05-05T10:26:35.440Z,31.85
2023-05-05T10:29:12.080Z,30.90
2023-05-05T10:31:46.044Z,29.74
2023-05-05T10:34:22.446Z,31.00
2023-05-05T10:36:55.121Z,31.34
2023-05-05T10:39:26.648Z,30.76
2023-05-05T10:41:58.741Z,30.94
2023-05-05T10:44:29.926Z,30.28
2023-05-05T10:47:00.861Z,30.62
2023-05-05T10:49:39.320Z,30.73
2023-05-05T10:52:15.111Z,30.23
2023-05-05T10:54:48.497Z,30.34
2023-05-05T10:57:21.604Z,29.16
2023-05-05T10:59:51.926Z,26.98
2023-05-05T11:02:24.527Z,26.15
2023-05-05T11:05:08.491Z,26.02
2023-05-05T11:07:38.999Z,25.76
2023-05-05T11:10:10.711Z,26.43
2023-05-05T11:13:11.220Z,25.31
2023-05-05T11:15:41.867Z,25.23
2023-05-05T11:18:31.298Z,25.04
2023-05-05T11:21:18.107Z,24.41
2023-05-05T11:23:52.956Z,24.49
2023-05-05T11:26:52.507Z,22.78
2023-05-05T11:29:22.849Z,22.49
2023-05-05T11:32:13.091Z,22.48
2023-05-05T11:34:51.909Z,22.62
2023-05-05T11:37:25.168Z,22.11
2023-05-05T11:40:09.392Z,21.77
2023-05-05T11:42:39.814Z,21.54
2023-05-05T11:45:23.757Z,20.65
2023-05-05T11:47:54.999Z,20.24
2023-05-05T11:50:24.594Z,21.02
2023-05-05T11:52:55.174Z,19.10
2023-05-05T11:55:26.185Z,19.21
2023-05-05T11:57:56.584Z,18.08
2023-05-05T12:00:35.436Z,18.28
2023-05-05T12:03:06.427Z,17.38
2023-05-05T12:05:37.232Z,17.39
2023-05-05T12:08:07.845Z,17.97
2023-05-05T12:10:38.163Z,19.51
2023-05-05T12:13:20.383Z,20.98
2023-05-05T12:15:50.882Z,22.07
2023-05-05T12:18:21.765Z,23.04
2023-05-05T12:20:53.056Z,23.69
2023-05-05T12:23:23.648Z,23.93
2023-05-05T12:25:54.255Z,23.81
2023-05-05T12:28:24.695Z,24.13
2023-05-05T12:31:01.763Z,24.59
2023-05-05T12:33:32.329Z,25.32
2023-05-05T12:36:02.999Z,26.06
2023-05-05T12:38:33.446Z,26.66
2023-05-05T12:41:05.084Z,27.07
2023-05-05T12:43:36.337Z,27.36
2023-05-05T12:46:09.302Z,27.81
2023-05-05T12:48:46.350Z,27.06
2023-05-05T12:51:20.583Z,26.00
2023-05-05T12:54:02.270Z,25.62
2023-05-05T12:56:33.708Z,25.93
2023-05-05T12:59:04.725Z,25.04
2023-05-05T13:01:35.703Z,23.81
2023-05-05T13:04:13.937Z,23.08
2023-05-05T13:06:45.771Z,22.13
2023-05-05T13:09:26.860Z,23.13
2023-05-05T13:11:58.427Z,24.36
2023-05-05T13:14:27.152Z,23.64
2023-05-05T13:16:57.379Z,23.46
2023-05-05T13:19:28.004Z,23.49
2023-05-05T13:21:59.086Z,23.10
2023-05-05T13:24:42.254Z,23.72
2023-05-05T13:27:23.668Z,22.35
2023-05-05T13:29:54.107Z,22.98
2023-05-05T13:32:24.926Z,23.01
2023-05-05T13:34:55.156Z,22.24
2023-05-05T13:37:25.571Z,21.48
2023-05-05T13:39:59.166Z,20.89
2023-05-05T13:42:29.337Z,20.27
2023-05-05T13:44:59.581Z,20.95
2023-05-05T13:47:29.825Z,20.96
2023-05-05T13:50:00.172Z,21.90
2023-05-05T13:52:31.797Z,22.57
2023-05-05T13:55:03.263Z,22.22
2023-05-05T13:57:33.478Z,22.21
2023-05-05T14:00:04.283Z,22.21
2023-05-05T14:02:37.776Z,22.50
2023-05-05T14:05:10.263Z,23.44
2023-05-05T14:07:40.810Z,23.82
2023-05-05T14:10:12.177Z,24.76
2023-05-05T14:12:42.464Z,25.47
2023-05-05T14:15:13.402Z,26.02
2023-05-05T14:17:43.647Z,26.28
2023-05-05T14:20:15.987Z,26.35
2023-05-05T14:22:48.782Z,26.85
2023-05-05T14:25:19.802Z,27.03
2023-05-05T14:27:50.897Z,27.25
2023-05-05T14:30:21.216Z,27.85
2023-05-05T14:32:51.501Z,28.21
2023-05-05T14:35:22.123Z,27.59
2023-05-05T14:37:52.290Z,27.83
2023-05-05T14:40:22.735Z,28.26
2023-05-05T14:42:53.002Z,28.51
2023-05-05T14:45:23.317Z,28.92
2023-05-05T14:47:53.808Z,29.26
2023-05-05T14:50:24.522Z,29.23
2023-05-05T14:52:54.877Z,29.75
2023-05-05T14:55:26.033Z,29.57
2023-05-05T14:57:56.254Z,29.45
2023-05-05T15:00:26.896Z,30.04
2023-05-05T15:02:57.362Z,30.27
2023-05-05T15:05:27.959Z,30.94
2023-05-05T15:07:58.572Z,31.60
2023-05-05T15:10:28.787Z,32.09
2023-05-05T15:12:59.200Z,35.21
2023-05-05T15:15:29.542Z,39.16
2023-05-05T15:17:59.794Z,43.03
2023-05-05T15:20:30.677Z,45.50
2023-05-05T15:23:01.321Z,48.70
2023-05-05T15:25:31.826Z,50.88
2023-05-05T15:28:02.071Z,53.39
2023-05-05T15:30:32.676Z,54.71
2023-05-05T15:33:03.361Z,55.85
2023-05-05T15:35:33.678Z,56.92
2023-05-05T15:38:04.704Z,57.98
2023-05-05T15:40:36.264Z,59.56
2023-05-05T15:43:06.774Z,60.05
2023-05-05T15:45:38.351Z,60.83
2023-05-05T15:48:09.184Z,61.33
2023-05-05T15:50:39.345Z,62.12
2023-05-05T15:53:09.553Z,62.68
2023-05-05T15:55:40.161Z,62.54
2023-05-05T15:58:10.621Z,62.42
2023-05-05T16:00:41.621Z,62.09
2023-05-05T16:03:11.914Z,62.37
2023-05-05T16:05:42.851Z,62.28
2023-05-05T16:08:13.085Z,62.20
2023-05-05T16:10:43.275Z,62.42
2023-05-05T16:13:13.930Z,62.65
2023-05-05T16:15:44.678Z,62.74
2023-05-05T16:18:14.875Z,62.98
2023-05-05T16:20:45.204Z,63.11
2023-05-05T16:23:16.137Z,63.15
2023-05-05T16:25:46.424Z,62.78
2023-05-05T16:28:16.814Z,63.27
2023-05-05T16:30:47.619Z,62.94
2023-05-05T16:33:17.809Z,62.42
2023-05-05T16:35:48.123Z,62.30
2023-05-05T16:38:18.381Z,62.37
2023-05-05T16:40:48.574Z,62.29
2023-05-05T16:43:19.719Z,62.34
2023-05-05T16:45:50.021Z,62.06
2023-05-05T16:48:20.272Z,61.20
2023-05-05T16:50:50.569Z,61.00
2023-05-05T16:53:20.789Z,61.28
2023-05-05T16:55:53.486Z,61.32
2023-05-05T16:58:22.356Z,61.12
2023-05-05T17:00:52.948Z,61.85
2023-05-05T17:03:23.799Z,61.67
2023-05-05T17:05:55.099Z,61.61
2023-05-05T17:08:25.558Z,61.63
2023-05-05T17:10:56.014Z,61.51
2023-05-05T17:13:26.300Z,61.54
2023-05-05T17:15:56.548Z,61.44
2023-05-05T17:18:26.820Z,60.99
2023-05-05T17:20:57.124Z,60.75
2023-05-05T17:23:27.624Z,61.04
2023-05-05T17:25:59.495Z,61.07
2023-05-05T17:28:30.124Z,60.99
2023-05-05T17:31:01.591Z,61.36
2023-05-05T17:33:31.834Z,60.51
2023-05-05T17:36:02.174Z,60.79
2023-05-05T17:38:32.470Z,60.79
2023-05-05T17:41:03.092Z,60.74
2023-05-05T17:43:33.395Z,60.70
2023-05-05T17:46:03.790Z,61.04
2023-05-05T17:48:34.689Z,61.26
2023-05-05T17:51:05.285Z,61.02
2023-05-05T17:53:35.636Z,61.02
2023-05-05T17:56:08.725Z,60.38
2023-05-05T17:58:39.423Z,60.12
2023-05-05T18:01:13.425Z,60.26
2023-05-05T18:03:43.794Z,60.38
2023-05-05T18:06:14.218Z,60.50
2023-05-05T18:08:44.814Z,60.94
2023-05-05T18:11:15.406Z,61.05
2023-05-05T18:13:46.128Z,62.44
2023-05-05T18:16:16.424Z,62.56
2023-05-05T18:18:46.643Z,62.12
2023-05-05T18:21:17.018Z,62.12
2023-05-05T18:23:47.302Z,62.37
2023-05-05T18:26:17.621Z,62.71
2023-05-05T18:28:47.993Z,62.71
2023-05-05T18:31:18.249Z,62.30
2023-05-05T18:33:48.547Z,62.49
2023-05-05T18:36:19.333Z,62.35
2023-05-05T18:38:49.882Z,62.77
2023-05-05T18:41:20.347Z,62.36
2023-05-05T18:43:51.032Z,62.83
2023-05-05T18:46:22.428Z,62.81
2023-05-05T18:48:53.154Z,62.67
2023-05-05T18:51:23.432Z,63.26
2023-05-05T18:53:53.797Z,63.78
2023-05-05T18:56:24.113Z,64.22
2023-05-05T18:58:54.495Z,64.12
2023-05-05T19:01:25.444Z,64.29
2023-05-05T19:03:56.101Z,64.55
2023-05-05T19:06:27.272Z,64.71
2023-05-05T19:08:57.657Z,64.48
2023-05-05T19:11:28.310Z,64.88
2023-05-05T19:13:58.537Z,64.95
2023-05-05T19:16:30.119Z,64.82
2023-05-05T19:19:00.907Z,64.99
2023-05-05T19:21:31.667Z,65.27
2023-05-05T19:24:01.964Z,65.38
2023-05-05T19:26:32.854Z,65.16
2023-05-05T19:29:03.451Z,65.02
2023-05-05T19:31:34.313Z,65.09
2023-05-05T19:34:05.982Z,65.77
2023-05-05T19:36:36.674Z,65.96
2023-05-05T19:39:08.205Z,65.54
2023-05-05T19:41:38.624Z,65.86
2023-05-05T19:44:09.058Z,65.85
2023-05-05T19:46:39.471Z,65.97
2023-05-05T19:49:10.525Z,66.13
2023-05-05T19:51:42.078Z,66.14
2023-05-05T19:54:12.342Z,66.33
2023-05-05T19:56:42.690Z,66.25
2023-05-05T19:59:13.047Z,66.67
2023-05-05T20:01:43.380Z,66.86
2023-05-05T20:04:14.104Z,66.67
2023-05-05T20:06:44.408Z,66.60
2023-05-05T20:09:15.054Z,66.50
2023-05-05T20:11:45.416Z,65.51
2023-05-05T20:14:15.747Z,65.87
2023-05-05T20:16:46.020Z,65.33
2023-05-05T20:19:16.370Z,65.01
2023-05-05T20:21:46.533Z,64.50
2023-05-05T20:24:18.013Z,64.40
2023-05-05T20:26:48.344Z,64.78
2023-05-05T20:29:19.796Z,64.38
2023-05-05T20:31:50.323Z,64.38
2023-05-05T20:34:21.003Z,64.25
2023-05-05T20:36:52.571Z,64.01
2023-05-05T20:39:22.832Z,64.11
2023-05-05T20:41:53.051Z,64.42
2023-05-05T20:44:23.300Z,64.11
2023-05-05T20:46:53.681Z,64.61
2023-05-05T20:49:24.419Z,65.05
2023-05-05T20:51:54.722Z,65.01
2023-05-05T20:54:24.854Z,64.81
2023-05-05T20:56:58.200Z,64.42
2023-05-05T20:59:28.838Z,64.72
2023-05-05T21:02:00.049Z,65.19
2023-05-05T21:04:30.289Z,65.41
2023-05-05T21:07:00.588Z,65.27
2023-05-05T21:09:31.386Z,65.40
2023-05-05T21:12:02.098Z,65.44
2023-05-05T21:14:32.341Z,65.82
2023-05-05T21:17:02.676Z,66.13
2023-05-05T21:19:32.924Z,66.13
2023-05-05T21:22:03.171Z,66.20
2023-05-05T21:24:33.303Z,66.38
2023-05-05T21:27:03.497Z,66.67
2023-05-05T21:29:37.456Z,66.63
2023-05-05T21:32:08.250Z,66.77
2023-05-05T21:34:39.055Z,66.26
2023-05-05T21:37:09.363Z,66.16
2023-05-05T21:39:39.745Z,65.87
2023-05-05T21:42:10.040Z,65.79
2023-05-05T21:44:40.344Z,65.60
2023-05-05T21:47:11.940Z,65.64
2023-05-05T21:49:42.235Z,65.46
2023-05-05T21:52:12.452Z,65.80
2023-05-05T21:54:42.588Z,65.79
2023-05-05T21:57:13.576Z,65.79
2023-05-05T21:59:43.831Z,65.94
2023-05-05T22:02:14.000Z,65.63
2023-05-05T22:04:48.972Z,65.74
2023-05-05T22:07:33.005Z,65.68
2023-05-05T22:10:03.737Z,65.60
2023-05-05T22:12:34.273Z,65.74
2023-05-05T22:15:05.307Z,65.77
2023-05-05T22:17:36.100Z,65.58
2023-05-05T22:20:09.724Z,65.46
2023-05-05T22:22:40.646Z,65.63
2023-05-05T22:25:12.133Z,65.65
2023-05-05T22:27:42.849Z,65.79
2023-05-05T22:30:14.930Z,65.91
2023-05-05T22:32:46.276Z,65.87
2023-05-05T22:35:16.660Z,66.14
2023-05-05T22:37:46.881Z,66.51
2023-05-05T22:40:17.325Z,66.50
2023-05-05T22:42:47.623Z,66.75
2023-05-05T22:45:17.934Z,66.74
2023-05-05T22:47:48.200Z,66.95
2023-05-05T22:50:18.805Z,67.24
2023-05-05T22:52:49.063Z,67.30
2023-05-05T22:55:20.263Z,67.21
2023-05-05T22:57:52.611Z,67.30
2023-05-05T23:00:23.083Z,67.24
2023-05-05T23:02:53.384Z,67.49
2023-05-05T23:05:24.513Z,67.36
2023-05-05T23:07:54.812Z,67.38
2023-05-05T23:10:24.977Z,67.51
2023-05-05T23:12:55.377Z,67.48
2023-05-05T23:15:25.907Z,67.41
2023-05-05T23:17:56.148Z,67.27
2023-05-05T23:20:26.710Z,67.34
2023-05-05T23:22:57.531Z,67.35
2023-05-05T23:25:27.974Z,67.37
2023-05-05T23:27:58.931Z,67.45
2023-05-05T23:30:29.329Z,67.71
2023-05-05T23:33:01.038Z,67.88
2023-05-05T23:35:31.406Z,67.90
2023-05-05T23:38:01.901Z,68.22
2023-05-05T23:40:32.096Z,68.43
2023-05-05T23:43:02.472Z,68.51
2023-05-05T23:45:32.759Z,68.71
2023-05-05T23:48:03.027Z,69.00
2023-05-05T23:50:33.258Z,68.94
2023-05-05T23:53:03.494Z,69.05
2023-05-05T23:55:33.699Z,69.17
2023-05-05T23:58:03.823Z,69.13
